createdAt,value
2023-01-19T00:00:08.798Z,97894.28
2023-01-19T00:02:35.404Z,97895.47
2023-01-19T00:05:03.955Z,97897.38
2023-01-19T00:07:31.746Z,97896.31
2023-01-19T00:09:58.839Z,97900.41
2023-01-19T00:12:26.286Z,97899.16
2023-01-19T00:14:52.877Z,97897.91
2023-01-19T00:17:19.523Z,97902.34
2023-01-19T00:19:46.081Z,97902.78
2023-01-19T00:22:12.687Z,97902.66
2023-01-19T00:24:39.280Z,97909.59
2023-01-19T00:27:05.963Z,97909.34
2023-01-19T00:29:34.196Z,97914.59
2023-01-19T00:32:01.424Z,97921.34
2023-01-19T00:34:36.704Z,97921.34
2023-01-19T00:37:04.296Z,97917.88
2023-01-19T00:39:30.849Z,97919.84
2023-01-19T00:42:16.461Z,97920.69
2023-01-19T00:44:43.160Z,97916.25
2023-01-19T00:47:10.005Z,97925.53
2023-01-19T00:49:36.644Z,97929.34
2023-01-19T00:52:03.725Z,97932.16
2023-01-19T00:54:30.263Z,97934.97
2023-01-19T00:56:57.127Z,97943.75
2023-01-19T00:59:25.766Z,97943.13
2023-01-19T01:01:52.657Z,97943.38
2023-01-19T01:04:19.508Z,97948.63
2023-01-19T01:06:46.541Z,97946.00
2023-01-19T01:09:13.176Z,97951.66
2023-01-19T01:11:42.266Z,97949.72
2023-01-19T01:14:11.609Z,97947.59
2023-01-19T01:16:38.572Z,97939.47
2023-01-19T01:19:05.221Z,97942.38
2023-01-19T01:21:34.481Z,97951.50
2023-01-19T01:24:01.800Z,97954.53
2023-01-19T01:26:28.680Z,97957.72
2023-01-19T01:28:55.279Z,97959.56
2023-01-19T01:31:21.955Z,97958.59
2023-01-19T01:33:48.603Z,97963.56
2023-01-19T01:36:15.428Z,97967.63
2023-01-19T01:38:42.475Z,97965.28
2023-01-19T01:41:09.612Z,97952.88
2023-01-19T01:43:53.471Z,97949.13
2023-01-19T01:46:20.732Z,97953.19
2023-01-19T01:48:51.466Z,97955.69
2023-01-19T01:51:36.870Z,97959.81
2023-01-19T01:54:19.459Z,97956.88
2023-01-19T01:56:51.548Z,97963.38
2023-01-19T01:59:28.256Z,97968.81
2023-01-19T02:02:20.443Z,97963.38
2023-01-19T02:04:54.332Z,97970.72
2023-01-19T02:08:12.449Z,97976.84
2023-01-19T02:10:59.702Z,97977.13
2023-01-19T02:13:28.127Z,97977.56
2023-01-19T02:16:00.040Z,97977.41
2023-01-19T02:18:29.728Z,97979.88
2023-01-19T02:21:08.588Z,97972.22
2023-01-19T02:23:44.244Z,97978.22
2023-01-19T02:26:16.000Z,97975.13
2023-01-19T02:28:50.892Z,97983.38
2023-01-19T02:31:18.165Z,97986.94
2023-01-19T02:33:45.288Z,97990.81
2023-01-19T02:36:15.184Z,98001.31
2023-01-19T02:38:44.075Z,97996.91
2023-01-19T02:41:14.540Z,98003.25
2023-01-19T02:43:42.942Z,97999.53
2023-01-19T02:46:09.585Z,97998.88
2023-01-19T02:48:36.284Z,97991.53
2023-01-19T02:51:23.012Z,97992.13
2023-01-19T02:53:52.346Z,98000.81
2023-01-19T02:56:34.802Z,98004.41
2023-01-19T02:59:29.093Z,98000.53
2023-01-19T03:02:08.990Z,98008.81
2023-01-19T03:04:41.799Z,98000.09
2023-01-19T03:07:13.420Z,98001.50
2023-01-19T03:09:53.413Z,98000.47
2023-01-19T03:12:19.960Z,97996.50
2023-01-19T03:14:48.383Z,98005.25
2023-01-19T03:17:18.985Z,98008.91
2023-01-19T03:19:48.153Z,98007.03
2023-01-19T03:22:24.252Z,98006.75
2023-01-19T03:24:53.673Z,98011.72
2023-01-19T03:27:26.913Z,98011.44
2023-01-19T03:30:07.718Z,98023.16
2023-01-19T03:32:43.279Z,98026.72
2023-01-19T03:35:14.310Z,98027.28
2023-01-19T03:37:45.556Z,98021.19
2023-01-19T03:40:12.682Z,98029.91
2023-01-19T03:42:41.106Z,98034.41
2023-01-19T03:45:09.167Z,98032.06
2023-01-19T03:47:36.586Z,98038.44
2023-01-19T03:50:07.861Z,98029.06
2023-01-19T03:52:34.534Z,98041.53
2023-01-19T03:55:02.500Z,98039.56
2023-01-19T03:57:29.205Z,98034.41
2023-01-19T03:59:56.885Z,98035.53
2023-01-19T04:02:24.136Z,98033.09
2023-01-19T04:04:50.865Z,98039.69
2023-01-19T04:07:17.500Z,98046.50
2023-01-19T04:09:44.514Z,98041.91
2023-01-19T04:12:11.143Z,98044.44
2023-01-19T04:14:37.800Z,98043.41
2023-01-19T04:17:04.458Z,98047.00
2023-01-19T04:19:31.157Z,98043.88
2023-01-19T04:21:57.989Z,98043.97
2023-01-19T04:24:24.544Z,98036.00
2023-01-19T04:26:53.457Z,98034.22
2023-01-19T04:29:20.174Z,98035.72
2023-01-19T04:31:46.811Z,98034.50
2023-01-19T04:34:13.464Z,98032.06
2023-01-19T04:36:40.383Z,98032.63
2023-01-19T04:39:08.950Z,98028.88
2023-01-19T04:41:35.599Z,98030.38
2023-01-19T04:44:02.315Z,98027.19
2023-01-19T04:46:29.019Z,98031.31
2023-01-19T04:48:55.632Z,98038.34
2023-01-19T04:51:22.262Z,98035.53
2023-01-19T04:53:48.929Z,98036.38
2023-01-19T04:56:15.547Z,98034.63
2023-01-19T04:58:42.236Z,98035.66
2023-01-19T05:01:09.623Z,98041.16
2023-01-19T05:03:36.450Z,98040.22
2023-01-19T05:06:03.291Z,98038.75
2023-01-19T05:08:30.197Z,98036.84
2023-01-19T05:10:57.576Z,98025.50
2023-01-19T05:13:24.264Z,98025.78
2023-01-19T05:15:50.986Z,98025.97
2023-01-19T05:18:18.398Z,98032.25
2023-01-19T05:20:45.149Z,98031.69
2023-01-19T05:23:11.945Z,98036.34
2023-01-19T05:25:38.527Z,98026.78
2023-01-19T05:28:05.411Z,98023.50
2023-01-19T05:30:32.096Z,98018.66
2023-01-19T05:32:59.227Z,98024.72
2023-01-19T05:35:35.414Z,98024.44
2023-01-19T05:38:02.740Z,98023.59
2023-01-19T05:40:29.341Z,98020.81
2023-01-19T05:43:00.646Z,98013.88
2023-01-19T05:45:28.481Z,98019.66
2023-01-19T05:47:55.773Z,98020.25
2023-01-19T05:50:22.834Z,98008.13
2023-01-19T05:52:49.418Z,98013.09
2023-01-19T05:55:16.548Z,98018.53
2023-01-19T05:57:43.459Z,98028.22
2023-01-19T06:00:10.687Z,98025.66
2023-01-19T06:02:37.429Z,98023.31
2023-01-19T06:05:04.658Z,98027.03
2023-01-19T06:07:34.386Z,98031.84
2023-01-19T06:10:01.120Z,98028.84
2023-01-19T06:12:28.179Z,98031.47
2023-01-19T06:14:54.895Z,98035.13
2023-01-19T06:17:21.780Z,98034.34
2023-01-19T06:19:48.401Z,98032.19
2023-01-19T06:22:15.139Z,98036.34
2023-01-19T06:24:41.785Z,98042.50
2023-01-19T06:27:08.470Z,98046.47
2023-01-19T06:29:35.045Z,98051.44
2023-01-19T06:32:01.735Z,98048.81
2023-01-19T06:34:29.011Z,98058.53
2023-01-19T06:36:59.188Z,98065.78
2023-01-19T06:39:25.987Z,98069.59
2023-01-19T06:41:52.578Z,98065.09
2023-01-19T06:44:19.117Z,98072.34
2023-01-19T06:46:45.775Z,98078.16
2023-01-19T06:49:12.390Z,98084.06
2023-01-19T06:51:39.042Z,98080.69
2023-01-19T06:54:05.664Z,98085.72
2023-01-19T06:56:32.807Z,98090.59
2023-01-19T06:58:59.368Z,98091.13
2023-01-19T07:01:26.878Z,98096.56
2023-01-19T07:03:53.753Z,98094.69
2023-01-19T07:06:20.725Z,98096.13
2023-01-19T07:08:47.384Z,98096.13
2023-01-19T07:11:25.493Z,98099.78
2023-01-19T07:13:56.644Z,98095.03
2023-01-19T07:16:23.642Z,98093.09
2023-01-19T07:18:50.860Z,98097.50
2023-01-19T07:21:18.284Z,98101.06
2023-01-19T07:23:47.729Z,98099.66
2023-01-19T07:26:15.246Z,98098.81
2023-01-19T07:28:41.998Z,98101.22
2023-01-19T07:31:09.645Z,98101.66
2023-01-19T07:33:36.475Z,98098.91
2023-01-19T07:36:03.175Z,98105.72
2023-01-19T07:38:29.818Z,98100.56
2023-01-19T07:41:08.115Z,98105.03
2023-01-19T07:43:35.231Z,98108.78
2023-01-19T07:46:04.529Z,98112.06
2023-01-19T07:48:31.221Z,98106.63
2023-01-19T07:51:05.782Z,98107.84
2023-01-19T07:53:32.745Z,98112.72
2023-01-19T07:55:59.561Z,98103.06
2023-01-19T07:58:26.926Z,98119.56
2023-01-19T08:00:53.712Z,98117.03
2023-01-19T08:03:20.503Z,98113.56
2023-01-19T08:05:51.801Z,98124.19
2023-01-19T08:08:18.967Z,98129.84
2023-01-19T08:10:46.217Z,98130.91
2023-01-19T08:13:12.954Z,98136.06
2023-01-19T08:15:39.744Z,98137.59
2023-01-19T08:18:06.872Z,98133.19
2023-01-19T08:20:33.524Z,98138.16
2023-01-19T08:23:01.407Z,98129.66
2023-01-19T08:25:37.263Z,98140.53
2023-01-19T08:28:05.766Z,98149.19
2023-01-19T08:30:32.993Z,98155.66
2023-01-19T08:33:07.985Z,98143.25
2023-01-19T08:35:37.427Z,98151.72
2023-01-19T08:38:05.597Z,98148.22
2023-01-19T08:40:38.386Z,98152.94
2023-01-19T08:43:08.703Z,98147.41
2023-01-19T08:45:37.448Z,98153.50
2023-01-19T08:48:06.185Z,98144.84
2023-01-19T08:50:34.093Z,98160.63
2023-01-19T08:53:02.989Z,98156.03
2023-01-19T08:55:30.124Z,98158.56
2023-01-19T08:58:00.193Z,98154.59
2023-01-19T09:00:27.605Z,98154.59
2023-01-19T09:02:54.923Z,98152.22
2023-01-19T09:05:21.719Z,98147.88
2023-01-19T09:07:48.718Z,98151.50
2023-01-19T09:10:16.561Z,98147.13
2023-01-19T09:12:44.939Z,98147.38
2023-01-19T09:15:13.961Z,98153.75
2023-01-19T09:17:42.261Z,98144.81
2023-01-19T09:20:09.587Z,98147.34
2023-01-19T09:22:36.373Z,98148.59
2023-01-19T09:25:03.140Z,98154.94
2023-01-19T09:27:30.587Z,98154.66
2023-01-19T09:29:57.191Z,98146.88
2023-01-19T09:32:23.799Z,98155.09
2023-01-19T09:34:51.121Z,98154.47
2023-01-19T09:37:17.982Z,98159.00
2023-01-19T09:39:44.611Z,98152.84
2023-01-19T09:42:33.742Z,98153.91
2023-01-19T09:45:01.254Z,98141.88
2023-01-19T09:47:31.249Z,98155.72
2023-01-19T09:50:21.605Z,98145.25
2023-01-19T09:52:57.005Z,98151.88
2023-01-19T09:55:26.864Z,98151.44
2023-01-19T09:57:54.413Z,98152.72
2023-01-19T10:00:23.283Z,98150.84
2023-01-19T10:02:59.652Z,98146.81
2023-01-19T10:05:51.976Z,98147.84
2023-01-19T10:08:41.914Z,98141.75
2023-01-19T10:11:52.556Z,98135.13
2023-01-19T10:14:26.965Z,98139.41
2023-01-19T10:17:06.343Z,98135.09
2023-01-19T10:19:42.336Z,98136.19
2023-01-19T10:22:23.957Z,98133.81
2023-01-19T10:24:56.113Z,98135.31
2023-01-19T10:27:28.466Z,98125.59
2023-01-19T10:29:56.601Z,98131.97
2023-01-19T10:32:30.579Z,98126.44
2023-01-19T10:34:59.816Z,98129.34
2023-01-19T10:37:32.392Z,98130.31
2023-01-19T10:40:11.256Z,98128.50
2023-01-19T10:42:40.167Z,98127.63
2023-01-19T10:45:21.118Z,98133.03
2023-01-19T10:47:49.223Z,98130.28
2023-01-19T10:50:27.275Z,98129.56
2023-01-19T10:52:57.415Z,98120.06
2023-01-19T10:55:39.533Z,98131.16
2023-01-19T10:58:25.628Z,98121.75
2023-01-19T11:00:52.473Z,98120.06
2023-01-19T11:03:29.353Z,98127.00
2023-01-19T11:06:23.261Z,98114.81
2023-01-19T11:08:51.899Z,98117.44
2023-01-19T11:11:24.419Z,98126.59
2023-01-19T11:14:09.738Z,98120.63
2023-01-19T11:16:38.722Z,98116.78
2023-01-19T11:19:14.663Z,98108.53
2023-01-19T11:21:41.424Z,98110.06
2023-01-19T11:24:14.716Z,98100.72
2023-01-19T11:26:43.119Z,98104.66
2023-01-19T11:29:21.556Z,98104.81
2023-01-19T11:31:49.262Z,98110.81
2023-01-19T11:34:38.600Z,98105.06
2023-01-19T11:37:14.522Z,98110.59
2023-01-19T11:39:53.014Z,98114.31
2023-01-19T11:42:20.524Z,98116.03
2023-01-19T11:44:50.838Z,98123.53
2023-01-19T11:47:23.335Z,98112.00
2023-01-19T11:49:58.528Z,98110.75
2023-01-19T11:52:27.883Z,98123.44
2023-01-19T11:55:12.245Z,98115.66
2023-01-19T11:57:45.844Z,98115.78
2023-01-19T12:00:35.591Z,98122.75
2023-01-19T12:03:17.834Z,98122.41
2023-01-19T12:05:49.084Z,98122.53
2023-01-19T12:08:26.942Z,98132.19
2023-01-19T12:10:58.312Z,98131.31
2023-01-19T12:13:27.732Z,98126.63
2023-01-19T12:16:04.289Z,98127.81
2023-01-19T12:18:40.987Z,98128.56
2023-01-19T12:21:07.701Z,98123.25
2023-01-19T12:24:02.231Z,98124.06
2023-01-19T12:26:54.491Z,98111.84
2023-01-19T12:29:24.764Z,98113.09
2023-01-19T12:32:13.011Z,98119.25
2023-01-19T12:34:50.004Z,98126.59
2023-01-19T12:37:39.610Z,98123.47
2023-01-19T12:40:27.606Z,98124.06
2023-01-19T12:43:01.295Z,98120.06
2023-01-19T12:45:34.556Z,98116.97
2023-01-19T12:48:02.943Z,98113.34
2023-01-19T12:50:37.149Z,98113.81
2023-01-19T12:53:08.298Z,98108.63
2023-01-19T12:55:37.770Z,98112.63
2023-01-19T12:58:17.795Z,98114.31
2023-01-19T13:00:47.182Z,98121.09
2023-01-19T13:03:16.510Z,98115.97
2023-01-19T13:05:43.267Z,98113.66
2023-01-19T13:08:09.792Z,98113.66
2023-01-19T13:11:10.680Z,98111.38
2023-01-19T13:13:40.395Z,98108.75
2023-01-19T13:16:19.445Z,98103.88
2023-01-19T13:18:53.946Z,98102.44
2023-01-19T13:21:26.685Z,98097.34
2023-01-19T13:23:56.647Z,98097.38
2023-01-19T13:26:27.457Z,98093.75
2023-01-19T13:28:58.546Z,98092.88
2023-01-19T13:31:25.593Z,98096.97
2023-01-19T13:33:59.041Z,98102.53
2023-01-19T13:36:35.569Z,98103.97
2023-01-19T13:39:11.726Z,98109.19
2023-01-19T13:41:40.489Z,98109.28
2023-01-19T13:44:39.176Z,98114.22
2023-01-19T13:47:12.323Z,98107.47
2023-01-19T13:49:43.744Z,98114.84
2023-01-19T13:52:21.316Z,98117.38
2023-01-19T13:54:53.566Z,98110.28
2023-01-19T13:57:26.172Z,98111.75
2023-01-19T14:00:17.009Z,98119.09
2023-01-19T14:03:17.896Z,98113.78
2023-01-19T14:05:45.182Z,98119.09
2023-01-19T14:08:17.812Z,98115.38
2023-01-19T14:10:52.190Z,98115.84
2023-01-19T14:13:45.442Z,98117.41
2023-01-19T14:16:17.817Z,98117.16
2023-01-19T14:18:44.497Z,98114.03
2023-01-19T14:21:15.745Z,98121.13
2023-01-19T14:23:49.872Z,98122.94
2023-01-19T14:26:38.580Z,98132.13
2023-01-19T14:29:25.098Z,98127.28
2023-01-19T14:32:00.655Z,98129.91
2023-01-19T14:34:30.319Z,98135.59
2023-01-19T14:36:57.406Z,98128.84
2023-01-19T14:39:26.334Z,98127.66
2023-01-19T14:41:54.859Z,98123.06
2023-01-19T14:44:40.426Z,98135.59
2023-01-19T14:47:21.473Z,98132.69
2023-01-19T14:49:48.392Z,98131.84
2023-01-19T14:52:26.254Z,98133.78
2023-01-19T14:54:54.821Z,98126.66
2023-01-19T14:57:21.538Z,98133.72
2023-01-19T14:59:49.688Z,98135.50
2023-01-19T15:02:20.221Z,98141.28
2023-01-19T15:04:48.012Z,98144.16
2023-01-19T15:07:19.328Z,98140.34
2023-01-19T15:09:47.962Z,98140.69
2023-01-19T15:12:17.483Z,98140.31
2023-01-19T15:14:45.347Z,98136.72
2023-01-19T15:17:25.204Z,98151.31
2023-01-19T15:19:53.453Z,98160.22
2023-01-19T15:22:22.235Z,98156.06
2023-01-19T15:24:49.688Z,98153.16
2023-01-19T15:27:17.091Z,98158.63
2023-01-19T15:29:43.781Z,98158.00
2023-01-19T15:32:14.608Z,98157.16
2023-01-19T15:34:41.992Z,98160.13
2023-01-19T15:37:08.912Z,98158.56
2023-01-19T15:39:35.621Z,98162.16
2023-01-19T15:42:02.478Z,98159.50
2023-01-19T15:44:29.739Z,98153.84
2023-01-19T15:46:57.478Z,98162.50
2023-01-19T15:49:24.296Z,98170.91
2023-01-19T15:51:51.002Z,98173.41
2023-01-19T15:54:18.615Z,98170.28
2023-01-19T15:56:45.426Z,98180.97
2023-01-19T15:59:12.105Z,98177.22
2023-01-19T16:01:40.492Z,98186.78
2023-01-19T16:04:10.916Z,98172.19
2023-01-19T16:06:37.788Z,98183.88
2023-01-19T16:09:04.805Z,98190.00
2023-01-19T16:11:33.895Z,98190.38
2023-01-19T16:14:00.916Z,98192.31
2023-01-19T16:16:30.862Z,98192.75
2023-01-19T16:18:59.347Z,98191.22
2023-01-19T16:21:26.376Z,98196.69
2023-01-19T16:23:54.449Z,98192.81
2023-01-19T16:26:34.666Z,98190.75
2023-01-19T16:29:09.024Z,98204.28
2023-01-19T16:31:38.240Z,98202.03
2023-01-19T16:34:05.775Z,98213.06
2023-01-19T16:36:35.325Z,98203.97
2023-01-19T16:39:08.146Z,98208.22
2023-01-19T16:41:36.924Z,98208.22
2023-01-19T16:44:05.330Z,98213.53
2023-01-19T16:46:35.444Z,98212.91
2023-01-19T16:49:05.871Z,98214.59
2023-01-19T16:51:33.977Z,98211.72
2023-01-19T16:54:01.280Z,98217.25
2023-01-19T16:56:30.379Z,98219.88
2023-01-19T16:58:59.222Z,98223.69
2023-01-19T17:01:28.631Z,98221.00
2023-01-19T17:03:56.820Z,98223.22
2023-01-19T17:06:25.436Z,98214.56
2023-01-19T17:08:53.462Z,98214.56
2023-01-19T17:11:23.718Z,98211.81
2023-01-19T17:13:57.003Z,98223.31
2023-01-19T17:16:25.660Z,98224.78
2023-01-19T17:18:53.671Z,98227.03
2023-01-19T17:21:21.105Z,98222.53
2023-01-19T17:23:50.765Z,98228.66
2023-01-19T17:26:18.812Z,98220.72
2023-01-19T17:28:46.733Z,98220.66
2023-01-19T17:31:21.138Z,98222.31
2023-01-19T17:33:50.275Z,98223.50
2023-01-19T17:36:25.412Z,98222.88
2023-01-19T17:38:54.402Z,98221.59
2023-01-19T17:41:27.249Z,98241.16
2023-01-19T17:43:54.786Z,98239.56
2023-01-19T17:46:25.168Z,98241.69
2023-01-19T17:48:52.847Z,98241.13
2023-01-19T17:51:20.415Z,98247.50
2023-01-19T17:53:47.475Z,98243.81
2023-01-19T17:56:16.814Z,98246.97
2023-01-19T17:58:45.240Z,98244.34
2023-01-19T18:01:30.537Z,98247.81
2023-01-19T18:03:59.006Z,98252.88
2023-01-19T18:06:26.789Z,98244.66
2023-01-19T18:08:54.401Z,98251.09
2023-01-19T18:11:22.781Z,98249.19
2023-01-19T18:13:50.891Z,98253.97
2023-01-19T18:16:22.365Z,98259.00
2023-01-19T18:18:50.016Z,98259.66
2023-01-19T18:21:17.786Z,98256.06
2023-01-19T18:23:46.024Z,98261.03
2023-01-19T18:26:16.268Z,98257.66
2023-01-19T18:28:42.920Z,98260.19
2023-01-19T18:31:11.888Z,98266.81
2023-01-19T18:33:39.212Z,98268.00
2023-01-19T18:36:06.768Z,98267.91
2023-01-19T18:38:34.349Z,98277.41
2023-01-19T18:41:01.235Z,98284.16
2023-01-19T18:43:28.025Z,98277.41
2023-01-19T18:45:54.622Z,98284.13
2023-01-19T18:48:21.244Z,98276.00
2023-01-19T18:50:48.009Z,98276.47
2023-01-19T18:53:14.702Z,98281.66
2023-01-19T18:55:51.872Z,98275.44
2023-01-19T18:58:19.150Z,98280.19
2023-01-19T19:00:45.775Z,98288.13
2023-01-19T19:03:12.666Z,98287.91
2023-01-19T19:05:39.726Z,98286.72
2023-01-19T19:08:07.079Z,98289.03
2023-01-19T19:10:34.023Z,98281.00
2023-01-19T19:13:00.651Z,98292.31
2023-01-19T19:15:27.313Z,98290.13
2023-01-19T19:17:54.653Z,98293.72
2023-01-19T19:20:23.246Z,98295.69
2023-01-19T19:22:51.690Z,98294.00
2023-01-19T19:25:18.414Z,98303.50
2023-01-19T19:27:47.758Z,98293.28
2023-01-19T19:30:14.893Z,98302.31
2023-01-19T19:32:42.004Z,98295.34
2023-01-19T19:35:09.065Z,98304.25
2023-01-19T19:37:35.687Z,98299.66
2023-01-19T19:40:02.298Z,98302.41
2023-01-19T19:42:30.178Z,98301.34
2023-01-19T19:44:56.845Z,98303.53
2023-01-19T19:47:24.487Z,98314.88
2023-01-19T19:49:51.159Z,98311.34
2023-01-19T19:52:17.747Z,98318.56
2023-01-19T19:54:45.117Z,98311.16
2023-01-19T19:57:11.690Z,98316.47
2023-01-19T19:59:38.346Z,98316.66
2023-01-19T20:02:05.184Z,98317.09
2023-01-19T20:04:31.969Z,98317.72
2023-01-19T20:07:00.018Z,98307.34
2023-01-19T20:09:26.768Z,98323.66
2023-01-19T20:11:53.442Z,98323.22
2023-01-19T20:14:21.088Z,98327.78
2023-01-19T20:16:47.738Z,98327.88
2023-01-19T20:19:14.572Z,98321.66
2023-01-19T20:21:42.343Z,98333.59
2023-01-19T20:24:14.532Z,98337.13
2023-01-19T20:26:44.580Z,98333.94
2023-01-19T20:29:11.844Z,98335.09
2023-01-19T20:31:42.410Z,98342.19
2023-01-19T20:34:10.036Z,98340.75
2023-01-19T20:36:37.105Z,98343.16
2023-01-19T20:39:08.502Z,98340.22
2023-01-19T20:41:43.124Z,98347.28
2023-01-19T20:44:15.590Z,98344.50
2023-01-19T20:46:43.591Z,98345.75
2023-01-19T20:49:10.288Z,98347.91
2023-01-19T20:51:39.728Z,98350.44
2023-01-19T20:54:06.510Z,98346.81
2023-01-19T20:56:33.115Z,98350.69
2023-01-19T20:58:59.798Z,98351.44
2023-01-19T21:01:26.489Z,98354.09
2023-01-19T21:03:53.337Z,98358.53
2023-01-19T21:06:21.312Z,98354.94
2023-01-19T21:08:51.251Z,98356.16
2023-01-19T21:11:20.945Z,98361.50
2023-01-19T21:13:48.834Z,98370.28
2023-01-19T21:16:16.104Z,98378.09
2023-01-19T21:18:43.162Z,98383.69
2023-01-19T21:21:20.848Z,98384.75
2023-01-19T21:23:51.620Z,98381.28
2023-01-19T21:26:18.437Z,98377.31
2023-01-19T21:28:45.278Z,98385.00
2023-01-19T21:31:13.887Z,98390.59
2023-01-19T21:33:41.532Z,98389.59
2023-01-19T21:36:10.432Z,98395.13
2023-01-19T21:38:38.611Z,98394.88
2023-01-19T21:41:07.687Z,98394.81
2023-01-19T21:43:36.581Z,98395.16
2023-01-19T21:46:19.385Z,98396.28
2023-01-19T21:48:46.078Z,98398.72
2023-01-19T21:51:13.693Z,98399.84
2023-01-19T21:53:40.853Z,98399.53
2023-01-19T21:56:09.409Z,98399.53
2023-01-19T21:58:36.300Z,98401.03
2023-01-19T22:01:06.380Z,98406.28
2023-01-19T22:03:33.299Z,98404.47
2023-01-19T22:06:04.945Z,98405.31
2023-01-19T22:08:31.757Z,98409.44
2023-01-19T22:11:05.547Z,98408.94
2023-01-19T22:13:33.356Z,98415.78
2023-01-19T22:16:01.419Z,98413.72
2023-01-19T22:18:28.265Z,98412.97
2023-01-19T22:20:55.084Z,98417.06
2023-01-19T22:23:21.789Z,98419.50
2023-01-19T22:25:48.459Z,98427.84
2023-01-19T22:28:15.032Z,98415.78
2023-01-19T22:30:41.880Z,98422.03
2023-01-19T22:33:08.601Z,98421.06
2023-01-19T22:35:35.242Z,98419.28
2023-01-19T22:38:02.097Z,98418.56
2023-01-19T22:40:28.741Z,98424.81
2023-01-19T22:42:55.464Z,98429.91
2023-01-19T22:45:22.039Z,98434.13
2023-01-19T22:47:48.879Z,98434.75
2023-01-19T22:50:15.867Z,98433.00
2023-01-19T22:52:42.566Z,98434.69
2023-01-19T22:55:09.804Z,98436.25
2023-01-19T22:57:36.608Z,98431.25
2023-01-19T23:00:07.028Z,98424.13
2023-01-19T23:02:33.679Z,98424.97
2023-01-19T23:05:00.512Z,98426.75
2023-01-19T23:07:27.121Z,98428.06
2023-01-19T23:09:53.656Z,98424.06
2023-01-19T23:12:20.265Z,98425.19
2023-01-19T23:14:46.826Z,98429.41
2023-01-19T23:17:13.408Z,98432.50
2023-01-19T23:19:40.049Z,98428.06
2023-01-19T23:22:06.636Z,98425.31
2023-01-19T23:24:33.257Z,98434.44
2023-01-19T23:27:02.151Z,98430.09
2023-01-19T23:29:28.773Z,98432.38
2023-01-19T23:31:56.258Z,98432.09
2023-01-19T23:34:22.925Z,98427.22
2023-01-19T23:36:49.575Z,98427.31
2023-01-19T23:39:19.448Z,98432.75
2023-01-19T23:41:46.524Z,98436.00
2023-01-19T23:44:13.759Z,98434.63
2023-01-19T23:46:40.414Z,98422.25
2023-01-19T23:49:07.049Z,98418.16
2023-01-19T23:51:48.760Z,98422.75
2023-01-19T23:54:15.435Z,98423.59
2023-01-19T23:56:42.853Z,98426.50
2023-01-19T23:59:15.156Z,98436.00
